Stockton, Kansas
Current Conditions -  °F | °C
As of 8:53 AM on Friday 28 Nov 2014 (Local Time) from KHLC Reporting Station
Clear Clear  
Wind Chill: 37°   Ceiling: Unl
Heat Index: 40°   Visibility: 10mi
Dew Point: 26°   Wind: 5mph
Humidity: 58%   Direction: 220°SW
Pressure: 29.88"   Gusts: NA
Location:  39.44°N, 99.27°W
Report Text: KHLC 281453Z AUTO 22004KT 10SM CLR 04/M03 A2988 RMK AO2 SLP126 T00441033 56014
Loading
Personal Weather Stations






























Interactive Weather Map New forecast layout! Learn more

10-Day Weather Forecast

Advertisements
Track Severe Weather on mobile